sensor_id;sensor_type;location;lat;lon;timestamp;pressure;altitude;pressure_sealevel;temperature;humidity
47742;BME280;33504;52.066;6.096;2023-08-06T00:00:21;100388.97;;;18.36;51.71
47742;BME280;33504;52.066;6.096;2023-08-06T00:02:47;100386.84;;;18.38;51.86
47742;BME280;33504;52.066;6.096;2023-08-06T00:05:15;100386.12;;;18.40;51.93
47742;BME280;33504;52.066;6.096;2023-08-06T00:07:42;100390.84;;;18.39;51.91
47742;BME280;33504;52.066;6.096;2023-08-06T00:10:09;100390.65;;;18.25;51.92
47742;BME280;33504;52.066;6.096;2023-08-06T00:12:36;100392.26;;;18.52;51.76
47742;BME280;33504;52.066;6.096;2023-08-06T00:15:04;100391.71;;;18.26;51.86
47742;BME280;33504;52.066;6.096;2023-08-06T00:17:31;100388.94;;;18.55;51.98
47742;BME280;33504;52.066;6.096;2023-08-06T00:19:57;100384.60;;;18.81;51.98
47742;BME280;33504;52.066;6.096;2023-08-06T00:22:25;100384.04;;;18.35;51.93
47742;BME280;33504;52.066;6.096;2023-08-06T00:24:52;100382.92;;;18.35;51.91
47742;BME280;33504;52.066;6.096;2023-08-06T00:27:19;100383.24;;;18.37;51.88
47742;BME280;33504;52.066;6.096;2023-08-06T00:29:46;100383.54;;;18.36;51.84
47742;BME280;33504;52.066;6.096;2023-08-06T00:32:13;100379.77;;;18.31;52.17
47742;BME280;33504;52.066;6.096;2023-08-06T00:34:40;100380.29;;;18.34;51.90
47742;BME280;33504;52.066;6.096;2023-08-06T00:37:07;100376.59;;;18.35;51.98
47742;BME280;33504;52.066;6.096;2023-08-06T00:39:33;100378.75;;;18.35;51.88
47742;BME280;33504;52.066;6.096;2023-08-06T00:42:01;100381.18;;;18.29;51.80
47742;BME280;33504;52.066;6.096;2023-08-06T00:44:28;100380.60;;;18.30;52.11
47742;BME280;33504;52.066;6.096;2023-08-06T00:46:55;100376.37;;;18.42;52.04
47742;BME280;33504;52.066;6.096;2023-08-06T00:49:23;100376.60;;;18.21;52.00
47742;BME280;33504;52.066;6.096;2023-08-06T00:51:50;100371.54;;;18.25;52.04
47742;BME280;33504;52.066;6.096;2023-08-06T00:54:17;100377.07;;;18.09;52.48
47742;BME280;33504;52.066;6.096;2023-08-06T00:56:45;100373.98;;;18.27;52.27
47742;BME280;33504;52.066;6.096;2023-08-06T00:59:13;100374.74;;;18.07;52.24
47742;BME280;33504;52.066;6.096;2023-08-06T01:01:40;100375.59;;;18.36;52.14
47742;BME280;33504;52.066;6.096;2023-08-06T01:04:07;100377.38;;;18.18;52.22
47742;BME280;33504;52.066;6.096;2023-08-06T01:06:39;100379.56;;;18.21;52.32
47742;BME280;33504;52.066;6.096;2023-08-06T01:09:21;100378.59;;;18.52;52.21
47742;BME280;33504;52.066;6.096;2023-08-06T01:12:01;100380.36;;;17.88;52.63
47742;BME280;33504;52.066;6.096;2023-08-06T01:14:37;100383.03;;;17.92;52.57
47742;BME280;33504;52.066;6.096;2023-08-06T01:17:05;100382.41;;;17.96;52.67
47742;BME280;33504;52.066;6.096;2023-08-06T01:19:32;100380.06;;;17.70;53.23
47742;BME280;33504;52.066;6.096;2023-08-06T01:21:59;100377.99;;;17.77;53.18
47742;BME280;33504;52.066;6.096;2023-08-06T01:24:26;100375.99;;;17.92;52.96
47742;BME280;33504;52.066;6.096;2023-08-06T01:26:58;100374.75;;;17.99;53.08
47742;BME280;33504;52.066;6.096;2023-08-06T01:29:34;100374.10;;;18.35;52.99
47742;BME280;33504;52.066;6.096;2023-08-06T01:32:03;100372.92;;;17.95;52.81
47742;BME280;33504;52.066;6.096;2023-08-06T01:34:33;100372.53;;;17.92;52.77
47742;BME280;33504;52.066;6.096;2023-08-06T01:37:01;100367.73;;;17.93;52.75
47742;BME280;33504;52.066;6.096;2023-08-06T01:39:33;100365.51;;;18.25;52.72
47742;BME280;33504;52.066;6.096;2023-08-06T01:42:00;100364.75;;;18.29;52.62
47742;BME280;33504;52.066;6.096;2023-08-06T01:44:27;100364.10;;;18.25;52.89
47742;BME280;33504;52.066;6.096;2023-08-06T01:46:55;100366.82;;;18.07;52.69
47742;BME280;33504;52.066;6.096;2023-08-06T01:49:22;100369.24;;;18.06;52.69
47742;BME280;33504;52.066;6.096;2023-08-06T01:51:48;100369.12;;;18.32;52.76
47742;BME280;33504;52.066;6.096;2023-08-06T01:54:16;100370.59;;;17.73;52.91
47742;BME280;33504;52.066;6.096;2023-08-06T01:56:42;100371.07;;;17.89;52.98
47742;BME280;33504;52.066;6.096;2023-08-06T01:59:10;100368.42;;;17.92;52.98
47742;BME280;33504;52.066;6.096;2023-08-06T02:01:37;100372.41;;;18.15;53.08
47742;BME280;33504;52.066;6.096;2023-08-06T02:04:04;100370.00;;;18.23;52.96
47742;BME280;33504;52.066;6.096;2023-08-06T02:06:30;100370.08;;;18.02;53.13
47742;BME280;33504;52.066;6.096;2023-08-06T02:08:58;100368.76;;;18.33;53.13
47742;BME280;33504;52.066;6.096;2023-08-06T02:11:24;100368.04;;;17.91;53.35
47742;BME280;33504;52.066;6.096;2023-08-06T02:13:51;100366.77;;;18.06;53.13
47742;BME280;33504;52.066;6.096;2023-08-06T02:16:18;100365.89;;;18.02;53.01
47742;BME280;33504;52.066;6.096;2023-08-06T02:18:45;100366.20;;;18.35;53.41
47742;BME280;33504;52.066;6.096;2023-08-06T02:21:12;100363.54;;;18.19;53.36
47742;BME280;33504;52.066;6.096;2023-08-06T02:23:39;100364.20;;;17.80;53.62
47742;BME280;33504;52.066;6.096;2023-08-06T02:26:06;100357.41;;;17.92;53.49
47742;BME280;33504;52.066;6.096;2023-08-06T02:28:33;100354.62;;;17.79;53.64
47742;BME280;33504;52.066;6.096;2023-08-06T02:31:01;100351.42;;;17.77;53.75
47742;BME280;33504;52.066;6.096;2023-08-06T02:33:28;100348.73;;;17.97;53.69
47742;BME280;33504;52.066;6.096;2023-08-06T02:35:59;100346.85;;;17.88;53.62
47742;BME280;33504;52.066;6.096;2023-08-06T02:38:26;100346.24;;;17.89;53.68
47742;BME280;33504;52.066;6.096;2023-08-06T02:40:53;100338.15;;;17.98;53.53
47742;BME280;33504;52.066;6.096;2023-08-06T02:43:20;100335.49;;;18.02;53.57
47742;BME280;33504;52.066;6.096;2023-08-06T02:45:48;100333.80;;;18.09;53.49
47742;BME280;33504;52.066;6.096;2023-08-06T02:48:14;100335.84;;;18.11;53.47
47742;BME280;33504;52.066;6.096;2023-08-06T02:50:41;100333.02;;;18.15;53.31
47742;BME280;33504;52.066;6.096;2023-08-06T02:53:09;100329.28;;;18.34;53.36
47742;BME280;33504;52.066;6.096;2023-08-06T02:55:35;100327.86;;;18.13;53.30
47742;BME280;33504;52.066;6.096;2023-08-06T02:58:03;100328.09;;;18.14;53.30
47742;BME280;33504;52.066;6.096;2023-08-06T03:00:30;100326.81;;;18.15;53.25
47742;BME280;33504;52.066;6.096;2023-08-06T03:02:57;100322.87;;;18.19;53.26
47742;BME280;33504;52.066;6.096;2023-08-06T03:05:24;100326.02;;;18.20;53.22
47742;BME280;33504;52.066;6.096;2023-08-06T03:07:51;100323.92;;;18.25;53.13
47742;BME280;33504;52.066;6.096;2023-08-06T03:10:18;100319.71;;;18.28;53.05
47742;BME280;33504;52.066;6.096;2023-08-06T03:12:45;100317.48;;;18.00;53.01
47742;BME280;33504;52.066;6.096;2023-08-06T03:15:12;100315.62;;;18.27;53.00
47742;BME280;33504;52.066;6.096;2023-08-06T03:17:39;100312.85;;;18.29;53.00
47742;BME280;33504;52.066;6.096;2023-08-06T03:20:07;100311.65;;;18.32;53.08
47742;BME280;33504;52.066;6.096;2023-08-06T03:22:34;100311.34;;;18.35;53.03
47742;BME280;33504;52.066;6.096;2023-08-06T03:25:01;100311.99;;;18.38;52.97
47742;BME280;33504;52.066;6.096;2023-08-06T03:27:28;100313.30;;;18.41;52.95
47742;BME280;33504;52.066;6.096;2023-08-06T03:29:55;100313.17;;;18.41;52.94
47742;BME280;33504;52.066;6.096;2023-08-06T03:32:22;100312.09;;;18.41;52.97
47742;BME280;33504;52.066;6.096;2023-08-06T03:34:50;100314.67;;;18.42;53.02
47742;BME280;33504;52.066;6.096;2023-08-06T03:37:16;100311.08;;;18.42;52.88
47742;BME280;33504;52.066;6.096;2023-08-06T03:39:43;100310.63;;;18.16;52.82
47742;BME280;33504;52.066;6.096;2023-08-06T03:42:10;100310.06;;;18.42;52.79
47742;BME280;33504;52.066;6.096;2023-08-06T03:44:37;100308.14;;;18.43;52.74
47742;BME280;33504;52.066;6.096;2023-08-06T03:47:04;100309.50;;;18.65;52.70
47742;BME280;33504;52.066;6.096;2023-08-06T03:49:32;100309.15;;;18.41;52.68
47742;BME280;33504;52.066;6.096;2023-08-06T03:51:58;100310.41;;;18.39;52.73
47742;BME280;33504;52.066;6.096;2023-08-06T03:54:26;100310.79;;;18.38;52.71
47742;BME280;33504;52.066;6.096;2023-08-06T03:56:53;100308.41;;;18.59;52.69
47742;BME280;33504;52.066;6.096;2023-08-06T03:59:20;100307.55;;;18.37;52.55
47742;BME280;33504;52.066;6.096;2023-08-06T04:01:46;100311.99;;;18.36;52.55
47742;BME280;33504;52.066;6.096;2023-08-06T04:04:14;100312.55;;;18.34;52.56
47742;BME280;33504;52.066;6.096;2023-08-06T04:06:41;100311.72;;;18.32;52.61
47742;BME280;33504;52.066;6.096;2023-08-06T04:09:08;100315.09;;;18.75;52.66
47742;BME280;33504;52.066;6.096;2023-08-06T04:11:35;100314.28;;;18.30;52.72
47742;BME280;33504;52.066;6.096;2023-08-06T04:14:02;100316.55;;;18.32;52.79
47742;BME280;33504;52.066;6.096;2023-08-06T04:16:29;100319.18;;;18.34;52.84
47742;BME280;33504;52.066;6.096;2023-08-06T04:18:55;100320.13;;;18.31;52.63
47742;BME280;33504;52.066;6.096;2023-08-06T04:21:22;100319.08;;;18.31;52.74
47742;BME280;33504;52.066;6.096;2023-08-06T04:23:48;100318.69;;;18.33;52.80
47742;BME280;33504;52.066;6.096;2023-08-06T04:26:15;100321.18;;;18.36;52.85
47742;BME280;33504;52.066;6.096;2023-08-06T04:28:42;100322.92;;;18.39;52.74
47742;BME280;33504;52.066;6.096;2023-08-06T04:31:10;100322.81;;;18.33;52.73
47742;BME280;33504;52.066;6.096;2023-08-06T04:33:37;100324.63;;;18.33;52.71
47742;BME280;33504;52.066;6.096;2023-08-06T04:36:04;100323.23;;;18.33;52.77
47742;BME280;33504;52.066;6.096;2023-08-06T04:38:31;100320.52;;;18.35;52.61
47742;BME280;33504;52.066;6.096;2023-08-06T04:40:59;100318.83;;;18.35;52.60
47742;BME280;33504;52.066;6.096;2023-08-06T04:43:26;100320.17;;;18.32;52.41
47742;BME280;33504;52.066;6.096;2023-08-06T04:45:55;100323.39;;;18.33;52.23
47742;BME280;33504;52.066;6.096;2023-08-06T04:48:22;100327.19;;;18.34;52.25
47742;BME280;33504;52.066;6.096;2023-08-06T04:50:51;100331.75;;;18.35;52.27
47742;BME280;33504;52.066;6.096;2023-08-06T04:53:18;100331.19;;;18.34;52.43
47742;BME280;33504;52.066;6.096;2023-08-06T04:55:45;100334.77;;;18.36;52.53
47742;BME280;33504;52.066;6.096;2023-08-06T04:58:13;100335.01;;;18.38;52.59
47742;BME280;33504;52.066;6.096;2023-08-06T05:00:40;100335.70;;;18.30;52.74
47742;BME280;33504;52.066;6.096;2023-08-06T05:03:08;100338.16;;;18.35;52.69
47742;BME280;33504;52.066;6.096;2023-08-06T05:05:35;100340.62;;;17.99;52.87
47742;BME280;33504;52.066;6.096;2023-08-06T05:08:02;100339.32;;;18.36;52.74
47742;BME280;33504;52.066;6.096;2023-08-06T05:10:29;100341.61;;;18.39;52.74
47742;BME280;33504;52.066;6.096;2023-08-06T05:12:56;100342.55;;;18.39;52.79
47742;BME280;33504;52.066;6.096;2023-08-06T05:15:23;100344.73;;;18.41;52.82
47742;BME280;33504;52.066;6.096;2023-08-06T05:17:50;100348.23;;;18.18;52.90
47742;BME280;33504;52.066;6.096;2023-08-06T05:20:17;100348.60;;;18.47;52.92
47742;BME280;33504;52.066;6.096;2023-08-06T05:22:44;100349.67;;;18.48;52.88
47742;BME280;33504;52.066;6.096;2023-08-06T05:25:14;100349.60;;;18.50;52.78
47742;BME280;33504;52.066;6.096;2023-08-06T05:27:40;100349.66;;;18.52;52.80
47742;BME280;33504;52.066;6.096;2023-08-06T05:30:08;100351.58;;;18.51;52.85
47742;BME280;33504;52.066;6.096;2023-08-06T05:32:35;100353.27;;;18.50;52.73
47742;BME280;33504;52.066;6.096;2023-08-06T05:35:03;100355.30;;;18.22;52.73
47742;BME280;33504;52.066;6.096;2023-08-06T05:37:31;100356.02;;;18.18;52.82
47742;BME280;33504;52.066;6.096;2023-08-06T05:39:58;100358.35;;;18.48;52.91
47742;BME280;33504;52.066;6.096;2023-08-06T05:42:25;100362.44;;;18.54;52.96
47742;BME280;33504;52.066;6.096;2023-08-06T05:44:52;100363.78;;;18.31;52.95
47742;BME280;33504;52.066;6.096;2023-08-06T05:47:18;100364.25;;;18.63;52.99
47742;BME280;33504;52.066;6.096;2023-08-06T05:49:46;100366.43;;;18.37;52.98
47742;BME280;33504;52.066;6.096;2023-08-06T05:52:13;100367.98;;;18.65;52.93
47742;BME280;33504;52.066;6.096;2023-08-06T05:54:39;100372.38;;;18.67;52.94
47742;BME280;33504;52.066;6.096;2023-08-06T05:57:06;100372.60;;;18.47;52.95
47742;BME280;33504;52.066;6.096;2023-08-06T05:59:34;100371.42;;;18.77;52.91
47742;BME280;33504;52.066;6.096;2023-08-06T06:02:01;100367.84;;;18.76;52.86
47742;BME280;33504;52.066;6.096;2023-08-06T06:04:28;100370.36;;;18.79;52.82
47742;BME280;33504;52.066;6.096;2023-08-06T06:06:55;100375.14;;;18.82;52.79
47742;BME280;33504;52.066;6.096;2023-08-06T06:09:22;100379.64;;;18.60;52.86
47742;BME280;33504;52.066;6.096;2023-08-06T06:11:49;100384.97;;;18.64;53.03
47742;BME280;33504;52.066;6.096;2023-08-06T06:14:16;100387.75;;;18.69;52.94
47742;BME280;33504;52.066;6.096;2023-08-06T06:16:43;100390.07;;;18.92;52.82
47742;BME280;33504;52.066;6.096;2023-08-06T06:19:10;100391.69;;;18.95;52.88
47742;BME280;33504;52.066;6.096;2023-08-06T06:21:37;100393.11;;;18.71;52.82
47742;BME280;33504;52.066;6.096;2023-08-06T06:24:04;100398.31;;;18.72;52.81
47742;BME280;33504;52.066;6.096;2023-08-06T06:26:31;100398.49;;;19.02;52.79
47742;BME280;33504;52.066;6.096;2023-08-06T06:28:58;100400.28;;;18.79;52.83
47742;BME280;33504;52.066;6.096;2023-08-06T06:31:25;100402.40;;;18.81;52.86
47742;BME280;33504;52.066;6.096;2023-08-06T06:33:52;100405.04;;;19.08;52.82
47742;BME280;33504;52.066;6.096;2023-08-06T06:36:19;100409.50;;;18.83;52.75
47742;BME280;33504;52.066;6.096;2023-08-06T06:38:46;100410.01;;;18.86;52.82
47742;BME280;33504;52.066;6.096;2023-08-06T06:41:14;100409.69;;;19.18;52.77
47742;BME280;33504;52.066;6.096;2023-08-06T06:43:41;100410.88;;;19.20;52.75
47742;BME280;33504;52.066;6.096;2023-08-06T06:46:09;100411.30;;;19.19;52.65
47742;BME280;33504;52.066;6.096;2023-08-06T06:48:36;100411.00;;;18.93;52.65
47742;BME280;33504;52.066;6.096;2023-08-06T06:51:03;100411.29;;;18.88;52.68
47742;BME280;33504;52.066;6.096;2023-08-06T06:53:30;100412.66;;;18.90;52.68
47742;BME280;33504;52.066;6.096;2023-08-06T06:56:02;100412.07;;;18.94;52.76
47742;BME280;33504;52.066;6.096;2023-08-06T06:58:29;100410.88;;;19.03;52.87
47742;BME280;33504;52.066;6.096;2023-08-06T07:00:56;100413.23;;;19.05;53.13
47742;BME280;33504;52.066;6.096;2023-08-06T07:03:23;100417.16;;;18.89;52.93
47742;BME280;33504;52.066;6.096;2023-08-06T07:05:51;100418.54;;;19.07;52.75
47742;BME280;33504;52.066;6.096;2023-08-06T07:08:17;100423.68;;;19.13;52.65
47742;BME280;33504;52.066;6.096;2023-08-06T07:10:44;100424.40;;;19.35;52.67
47742;BME280;33504;52.066;6.096;2023-08-06T07:13:11;100427.53;;;19.06;52.73
47742;BME280;33504;52.066;6.096;2023-08-06T07:15:38;100428.85;;;19.06;52.66
47742;BME280;33504;52.066;6.096;2023-08-06T07:18:06;100429.65;;;19.06;52.61
47742;BME280;33504;52.066;6.096;2023-08-06T07:20:32;100431.32;;;19.33;52.68
47742;BME280;33504;52.066;6.096;2023-08-06T07:23:00;100433.73;;;19.38;52.57
47742;BME280;33504;52.066;6.096;2023-08-06T07:25:27;100434.37;;;19.41;52.63
47742;BME280;33504;52.066;6.096;2023-08-06T07:27:54;100434.48;;;19.20;52.73
47742;BME280;33504;52.066;6.096;2023-08-06T07:30:21;100436.25;;;19.58;52.71
47742;BME280;33504;52.066;6.096;2023-08-06T07:32:48;100438.05;;;19.14;52.85
47742;BME280;33504;52.066;6.096;2023-08-06T07:35:16;100442.59;;;19.15;53.20
47742;BME280;33504;52.066;6.096;2023-08-06T07:37:43;100442.22;;;19.15;52.69
47742;BME280;33504;52.066;6.096;2023-08-06T07:40:11;100443.82;;;19.29;52.80
47742;BME280;33504;52.066;6.096;2023-08-06T07:42:38;100442.05;;;19.47;52.76
47742;BME280;33504;52.066;6.096;2023-08-06T07:45:07;100439.87;;;19.50;52.76
47742;BME280;33504;52.066;6.096;2023-08-06T07:47:35;100442.37;;;19.82;52.52
47742;BME280;33504;52.066;6.096;2023-08-06T07:50:02;100447.31;;;19.45;52.51
47742;BME280;33504;52.066;6.096;2023-08-06T07:52:29;100447.22;;;19.48;52.25
47742;BME280;33504;52.066;6.096;2023-08-06T07:54:56;100443.22;;;19.65;52.22
47742;BME280;33504;52.066;6.096;2023-08-06T07:57:23;100439.85;;;19.73;52.13
47742;BME280;33504;52.066;6.096;2023-08-06T07:59:50;100438.50;;;19.57;52.17
47742;BME280;33504;52.066;6.096;2023-08-06T08:02:17;100437.17;;;19.74;52.20
47742;BME280;33504;52.066;6.096;2023-08-06T08:04:44;100436.91;;;19.85;52.27
47742;BME280;33504;52.066;6.096;2023-08-06T08:07:11;100437.48;;;19.72;52.11
47742;BME280;33504;52.066;6.096;2023-08-06T08:09:38;100436.58;;;20.00;52.15
47742;BME280;33504;52.066;6.096;2023-08-06T08:12:06;100434.40;;;20.01;52.60
47742;BME280;33504;52.066;6.096;2023-08-06T08:14:33;100435.77;;;19.95;51.85
47742;BME280;33504;52.066;6.096;2023-08-06T08:16:59;100437.22;;;19.80;51.56
47742;BME280;33504;52.066;6.096;2023-08-06T08:19:27;100436.63;;;20.23;51.39
47742;BME280;33504;52.066;6.096;2023-08-06T08:21:54;100439.71;;;20.33;51.31
47742;BME280;33504;52.066;6.096;2023-08-06T08:24:20;100439.01;;;20.31;50.85
47742;BME280;33504;52.066;6.096;2023-08-06T08:26:48;100439.49;;;20.39;50.75
47742;BME280;33504;52.066;6.096;2023-08-06T08:29:15;100440.50;;;20.67;50.80
47742;BME280;33504;52.066;6.096;2023-08-06T08:31:42;100440.67;;;20.28;50.99
47742;BME280;33504;52.066;6.096;2023-08-06T08:34:10;100440.68;;;20.72;50.93
47742;BME280;33504;52.066;6.096;2023-08-06T08:36:36;100440.10;;;20.98;51.14
47742;BME280;33504;52.066;6.096;2023-08-06T08:39:03;100440.74;;;20.92;50.62
47742;BME280;33504;52.066;6.096;2023-08-06T08:41:31;100439.32;;;21.15;50.24
47742;BME280;33504;52.066;6.096;2023-08-06T08:43:59;100441.22;;;21.27;49.87
47742;BME280;33504;52.066;6.096;2023-08-06T08:46:27;100439.08;;;21.18;49.20
47742;BME280;33504;52.066;6.096;2023-08-06T08:48:56;100439.20;;;21.52;49.25
47742;BME280;33504;52.066;6.096;2023-08-06T08:51:23;100441.76;;;21.72;49.55
47742;BME280;33504;52.066;6.096;2023-08-06T08:53:53;100446.17;;;21.52;49.75
47742;BME280;33504;52.066;6.096;2023-08-06T08:56:20;100447.21;;;21.41;49.43
47742;BME280;33504;52.066;6.096;2023-08-06T08:58:47;100446.80;;;21.52;49.09
47742;BME280;33504;52.066;6.096;2023-08-06T09:01:15;100446.04;;;21.40;49.10
47742;BME280;33504;52.066;6.096;2023-08-06T09:03:43;100445.50;;;21.10;49.34
47742;BME280;33504;52.066;6.096;2023-08-06T09:06:11;100447.83;;;21.10;49.48
47742;BME280;33504;52.066;6.096;2023-08-06T09:08:41;100446.89;;;21.00;49.87
47742;BME280;33504;52.066;6.096;2023-08-06T09:11:10;100450.37;;;20.75;50.05
47742;BME280;33504;52.066;6.096;2023-08-06T09:13:38;100451.55;;;20.72;50.07
47742;BME280;33504;52.066;6.096;2023-08-06T09:16:05;100452.64;;;20.36;50.17
47742;BME280;33504;52.066;6.096;2023-08-06T09:18:33;100454.27;;;20.50;50.03
47742;BME280;33504;52.066;6.096;2023-08-06T09:21:00;100453.89;;;20.46;50.24
47742;BME280;33504;52.066;6.096;2023-08-06T09:23:29;100458.81;;;20.68;50.37
47742;BME280;33504;52.066;6.096;2023-08-06T09:25:56;100461.80;;;20.40;50.39
47742;BME280;33504;52.066;6.096;2023-08-06T09:28:23;100468.52;;;20.60;50.60
47742;BME280;33504;52.066;6.096;2023-08-06T09:30:52;100470.45;;;20.58;50.61
47742;BME280;33504;52.066;6.096;2023-08-06T09:33:20;100469.85;;;20.26;50.72
47742;BME280;33504;52.066;6.096;2023-08-06T09:35:49;100470.36;;;20.53;50.71
47742;BME280;33504;52.066;6.096;2023-08-06T09:38:16;100471.66;;;20.26;50.89
47742;BME280;33504;52.066;6.096;2023-08-06T09:40:43;100473.95;;;20.56;50.97
47742;BME280;33504;52.066;6.096;2023-08-06T09:43:11;100475.80;;;20.78;51.00
47742;BME280;33504;52.066;6.096;2023-08-06T09:45:39;100476.00;;;20.78;51.15
47742;BME280;33504;52.066;6.096;2023-08-06T09:48:08;100479.13;;;20.64;51.07
47742;BME280;33504;52.066;6.096;2023-08-06T09:50:37;100478.45;;;20.46;51.09
47742;BME280;33504;52.066;6.096;2023-08-06T09:53:05;100478.65;;;20.19;51.17
47742;BME280;33504;52.066;6.096;2023-08-06T09:55:33;100476.06;;;20.53;51.11
47742;BME280;33504;52.066;6.096;2023-08-06T09:58:01;100477.82;;;20.31;51.06
47742;BME280;33504;52.066;6.096;2023-08-06T10:00:28;100477.92;;;20.61;50.94
47742;BME280;33504;52.066;6.096;2023-08-06T10:03:00;100478.27;;;20.31;51.00
47742;BME280;33504;52.066;6.096;2023-08-06T10:05:28;100477.14;;;20.89;50.75
47742;BME280;33504;52.066;6.096;2023-08-06T10:07:57;100476.86;;;20.41;50.74
47742;BME280;33504;52.066;6.096;2023-08-06T10:10:24;100477.54;;;20.50;50.67
47742;BME280;33504;52.066;6.096;2023-08-06T10:12:54;100478.96;;;20.53;50.78
47742;BME280;33504;52.066;6.096;2023-08-06T10:15:26;100479.44;;;20.57;50.80
47742;BME280;33504;52.066;6.096;2023-08-06T10:17:56;100475.73;;;20.65;51.05
47742;BME280;33504;52.066;6.096;2023-08-06T10:20:25;100475.20;;;20.52;51.26
47742;BME280;33504;52.066;6.096;2023-08-06T10:23:07;100474.46;;;20.61;51.11
47742;BME280;33504;52.066;6.096;2023-08-06T10:25:35;100474.09;;;20.45;50.77
47742;BME280;33504;52.066;6.096;2023-08-06T10:28:08;100476.87;;;20.62;51.00
47742;BME280;33504;52.066;6.096;2023-08-06T10:30:42;100478.20;;;20.41;50.78
47742;BME280;33504;52.066;6.096;2023-08-06T10:33:09;100486.87;;;20.39;51.45
47742;BME280;33504;52.066;6.096;2023-08-06T10:35:38;100489.69;;;20.41;51.27
47742;BME280;33504;52.066;6.096;2023-08-06T10:38:08;100492.58;;;20.40;51.40
47742;BME280;33504;52.066;6.096;2023-08-06T10:40:36;100496.87;;;19.66;51.79
47742;BME280;33504;52.066;6.096;2023-08-06T10:43:04;100497.21;;;19.87;52.24
47742;BME280;33504;52.066;6.096;2023-08-06T10:45:34;100495.22;;;19.65;52.93
47742;BME280;33504;52.066;6.096;2023-08-06T10:48:02;100493.42;;;19.36;53.18
47742;BME280;33504;52.066;6.096;2023-08-06T10:50:31;100493.48;;;19.11;53.89
47742;BME280;33504;52.066;6.096;2023-08-06T10:53:04;100493.73;;;19.07;54.09
47742;BME280;33504;52.066;6.096;2023-08-06T10:55:32;100494.16;;;19.31;53.92
47742;BME280;33504;52.066;6.096;2023-08-06T10:57:59;100496.50;;;19.11;54.34
47742;BME280;33504;52.066;6.096;2023-08-06T11:00:26;100497.04;;;19.26;54.69
47742;BME280;33504;52.066;6.096;2023-08-06T11:02:54;100497.24;;;19.08;54.56
47742;BME280;33504;52.066;6.096;2023-08-06T11:05:21;100497.19;;;19.33;54.49
47742;BME280;33504;52.066;6.096;2023-08-06T11:07:48;100500.16;;;19.24;54.66
47742;BME280;33504;52.066;6.096;2023-08-06T11:10:15;100502.70;;;19.30;54.56
47742;BME280;33504;52.066;6.096;2023-08-06T11:12:43;100504.34;;;19.38;54.78
47742;BME280;33504;52.066;6.096;2023-08-06T11:15:10;100507.61;;;19.64;54.77
47742;BME280;33504;52.066;6.096;2023-08-06T11:17:40;100509.52;;;19.47;54.74
47742;BME280;33504;52.066;6.096;2023-08-06T11:20:09;100514.56;;;19.51;54.64
47742;BME280;33504;52.066;6.096;2023-08-06T11:22:37;100519.79;;;19.40;54.83
47742;BME280;33504;52.066;6.096;2023-08-06T11:25:06;100522.99;;;19.56;54.49
47742;BME280;33504;52.066;6.096;2023-08-06T11:27:34;100524.01;;;19.34;54.06
47742;BME280;33504;52.066;6.096;2023-08-06T11:30:01;100530.39;;;18.76;54.19
47742;BME280;33504;52.066;6.096;2023-08-06T11:32:28;100537.40;;;18.80;54.30
47742;BME280;33504;52.066;6.096;2023-08-06T11:34:55;100538.56;;;18.64;54.57
47742;BME280;33504;52.066;6.096;2023-08-06T11:37:23;100544.63;;;18.56;54.42
47742;BME280;33504;52.066;6.096;2023-08-06T11:39:50;100546.96;;;18.78;53.73
47742;BME280;33504;52.066;6.096;2023-08-06T11:42:18;100546.48;;;18.24;53.43
47742;BME280;33504;52.066;6.096;2023-08-06T11:44:45;100550.86;;;17.99;53.98
47742;BME280;33504;52.066;6.096;2023-08-06T11:47:15;100551.80;;;17.86;54.28
47742;BME280;33504;52.066;6.096;2023-08-06T11:49:44;100550.12;;;17.95;54.87
47742;BME280;33504;52.066;6.096;2023-08-06T11:52:15;100551.17;;;17.77;54.85
47742;BME280;33504;52.066;6.096;2023-08-06T11:54:43;100552.73;;;17.26;55.34
47742;BME280;33504;52.066;6.096;2023-08-06T11:57:11;100548.78;;;17.22;54.94
47742;BME280;33504;52.066;6.096;2023-08-06T11:59:38;100551.25;;;17.31;55.91
47742;BME280;33504;52.066;6.096;2023-08-06T12:02:08;100549.77;;;17.41;55.30
47742;BME280;33504;52.066;6.096;2023-08-06T12:05:12;100551.27;;;17.39;55.86
47742;BME280;33504;52.066;6.096;2023-08-06T12:07:43;100544.51;;;16.64;55.99
47742;BME280;33504;52.066;6.096;2023-08-06T12:10:12;100551.99;;;16.45;56.43
47742;BME280;33504;52.066;6.096;2023-08-06T12:12:40;100556.79;;;16.95;55.81
47742;BME280;33504;52.066;6.096;2023-08-06T12:15:08;100560.91;;;16.41;56.33
47742;BME280;33504;52.066;6.096;2023-08-06T12:17:36;100562.22;;;16.87;56.16
47742;BME280;33504;52.066;6.096;2023-08-06T12:20:04;100565.55;;;16.57;56.34
47742;BME280;33504;52.066;6.096;2023-08-06T12:22:32;100570.99;;;16.85;56.60
47742;BME280;33504;52.066;6.096;2023-08-06T12:24:59;100575.85;;;16.72;56.83
47742;BME280;33504;52.066;6.096;2023-08-06T12:27:25;100584.09;;;15.75;57.96
47742;BME280;33504;52.066;6.096;2023-08-06T12:29:52;100587.96;;;15.67;59.18
47742;BME280;33504;52.066;6.096;2023-08-06T12:32:19;100589.34;;;16.14;58.55
47742;BME280;33504;52.066;6.096;2023-08-06T12:34:45;100591.04;;;16.03;58.55
47742;BME280;33504;52.066;6.096;2023-08-06T12:37:12;100599.88;;;16.03;58.65
47742;BME280;33504;52.066;6.096;2023-08-06T12:39:39;100606.19;;;15.74;59.22
47742;BME280;33504;52.066;6.096;2023-08-06T12:42:06;100605.46;;;15.60;59.40
47742;BME280;33504;52.066;6.096;2023-08-06T12:44:33;100607.38;;;15.53;59.83
47742;BME280;33504;52.066;6.096;2023-08-06T12:47:00;100612.14;;;15.48;59.84
47742;BME280;33504;52.066;6.096;2023-08-06T12:49:27;100610.32;;;15.39;60.02
47742;BME280;33504;52.066;6.096;2023-08-06T12:51:53;100614.35;;;15.64;59.73